Time;durP1;ratioP1;P1;durP2;ratioP2;P2;SDS_P1;SDS_P2;PMS_P1;PMS_P2;Temp;Humidity;BMP_temperature;BMP_pressure;BME280_temperature;BME280_humidity;BME280_pressure;Samples;Min_cycle;Max_cycle;Signal;HPM_P1;HPM_P2
2023/10/16 00:06:13;;;;;;;4.88;2.40;;;7.80;99.90;;;;;;20237500;29;20059;-41
2023/10/16 00:16:16;;;;;;;6.38;2.80;;;7.90;99.90;;;;;;20237377;29;20048;-41
2023/10/16 00:26:21;;;;;;;9.05;3.38;;;8.00;99.90;;;;;;20235106;29;20190;-41
2023/10/16 00:36:21;;;;;;;8.13;3.10;;;8.00;99.90;;;;;;20228828;29;20527;-41
2023/10/16 00:46:36;;;;;;;11.10;3.10;;;8.10;99.90;;;;;;20233667;29;20052;-41
2023/10/16 00:56:38;;;;;;;9.10;3.50;;;8.10;99.90;;;;;;20252630;29;20419;-41
2023/10/16 01:06:41;;;;;;;4.97;2.45;;;8.00;99.90;;;;;;20249029;29;20048;-41
2023/10/16 01:16:41;;;;;;;5.88;3.30;;;8.00;99.90;;;;;;20242521;29;20512;-41
2023/10/16 01:26:44;;;;;;;7.00;2.85;;;7.90;99.90;;;;;;20246496;29;20138;-41
2023/10/16 01:36:47;;;;;;;6.80;2.63;;;7.80;99.90;;;;;;20236634;29;20809;-44
2023/10/16 01:46:48;;;;;;;6.68;2.83;;;7.90;99.90;;;;;;20242518;29;20079;-41
2023/10/16 01:56:49;;;;;;;6.25;2.67;;;7.90;99.90;;;;;;20234072;29;20048;-40
2023/10/16 02:06:49;;;;;;;5.20;2.58;;;8.00;99.90;;;;;;20240391;29;22661;-41
2023/10/16 02:16:51;;;;;;;8.02;3.15;;;8.00;99.90;;;;;;20244930;29;20048;-41
2023/10/16 02:26:59;;;;;;;6.72;3.33;;;8.10;99.90;;;;;;20239163;29;20131;-41
2023/10/16 02:37:00;;;;;;;;;;;8.20;99.90;;;;;;20233922;29;20055;-41
2023/10/16 02:47:05;;;;;;;5.57;2.63;;;8.20;99.90;;;;;;20229925;29;20292;-41
2023/10/16 02:57:06;;;;;;;6.35;2.45;;;8.10;99.90;;;;;;20235306;29;20059;-41
2023/10/16 03:07:07;;;;;;;4.60;2.25;;;8.20;99.90;;;;;;20232201;28;20051;-41
2023/10/16 03:17:10;;;;;;;4.40;2.53;;;8.10;99.90;;;;;;20234237;29;20453;-41
2023/10/16 03:27:11;;;;;;;5.10;2.20;;;8.10;99.90;;;;;;20235957;29;20056;-41
2023/10/16 03:37:14;;;;;;;10.65;2.88;;;8.10;99.90;;;;;;20233792;29;20527;-41
2023/10/16 03:47:15;;;;;;;4.47;2.40;;;8.20;99.90;;;;;;20233366;29;20104;-41
2023/10/16 03:57:20;;;;;;;4.90;2.72;;;8.20;99.90;;;;;;20228123;29;20051;-41
2023/10/16 04:07:22;;;;;;;7.55;3.20;;;8.20;99.90;;;;;;20220042;29;20435;-41
2023/10/16 04:17:32;;;;;;;6.78;3.13;;;8.30;99.90;;;;;;20234686;29;20044;-41
2023/10/16 04:27:33;;;;;;;4.78;3.00;;;8.20;99.90;;;;;;20227973;29;20060;-41
2023/10/16 04:37:37;;;;;;;7.65;4.32;;;8.30;99.90;;;;;;20216471;29;20128;-41
2023/10/16 04:58:27;;;;;;;5.93;3.60;;;8.50;99.90;;;;;;20228837;29;20266;-41
2023/10/16 05:19:02;;;;;;;8.52;4.28;;;8.40;99.90;;;;;;20227009;29;20155;-41
2023/10/16 06:20:43;;;;;;;9.82;5.18;;;8.40;99.90;;;;;;20243012;29;20056;-41
2023/10/16 06:30:43;;;;;;;6.55;3.88;;;8.50;99.90;;;;;;20262729;29;20048;-41
2023/10/16 06:40:44;;;;;;;8.40;4.40;;;8.50;99.90;;;;;;20264117;29;20147;-41
2023/10/16 06:50:54;;;;;;;7.35;4.95;;;8.60;99.90;;;;;;20263465;29;20099;-41
2023/10/16 07:00:55;;;;;;;11.80;6.10;;;8.70;99.90;;;;;;20265541;29;20048;-41
2023/10/16 07:10:56;;;;;;;9.25;4.88;;;8.90;99.90;;;;;;20270627;29;20115;-41
2023/10/16 07:20:59;;;;;;;8.85;4.47;;;8.90;99.90;;;;;;20268613;29;20043;-41
2023/10/16 07:31:02;;;;;;;8.02;3.70;;;9.10;99.90;;;;;;20308713;29;20480;-41
2023/10/16 07:41:03;;;;;;;5.32;2.78;;;9.40;99.90;;;;;;20308387;29;20051;-39
2023/10/16 07:51:07;;;;;;;7.45;2.60;;;9.30;99.90;;;;;;20305120;29;20051;-39
2023/10/16 08:11:12;;;;;;;3.92;2.40;;;9.50;99.90;;;;;;20310039;29;20040;-40
2023/10/16 08:21:28;;;;;;;8.77;2.70;;;9.70;99.90;;;;;;20312500;29;20135;-39
2023/10/16 08:31:31;;;;;;;7.22;2.30;;;10.10;99.90;;;;;;20304334;29;20143;-39
2023/10/16 08:41:42;;;;;;;5.90;1.98;;;10.40;99.90;;;;;;20312766;29;20420;-39
2023/10/16 08:51:43;;;;;;;4.63;1.30;;;10.80;92.70;;;;;;20312407;29;20044;-40
2023/10/16 09:01:48;;;;;;;3.35;1.38;;;10.80;99.90;;;;;;20299750;29;20811;-39
2023/10/16 09:11:49;;;;;;;2.50;1.30;;;11.30;66.00;;;;;;20318716;29;20075;-39
2023/10/16 09:21:52;;;;;;;3.30;1.38;;;11.30;40.40;;;;;;20323944;29;20052;-39
2023/10/16 09:31:54;;;;;;;3.00;1.30;;;11.60;25.70;;;;;;20323540;29;20038;-39
2023/10/16 09:41:59;;;;;;;4.95;0.80;;;11.50;27.20;;;;;;20313827;29;20048;-40
2023/10/16 09:52:04;;;;;;;4.45;1.10;;;11.50;43.70;;;;;;20290010;29;20048;-39
2023/10/16 10:02:06;;;;;;;2.80;1.00;;;11.80;32.50;;;;;;20309910;29;20058;-39
2023/10/16 10:12:23;;;;;;;6.20;0.70;;;12.00;1.00;;;;;;20317919;29;20043;-40
2023/10/16 10:22:33;;;;;;;1.67;0.50;;;12.10;1.00;;;;;;20314332;29;20055;-40
2023/10/16 10:32:33;;;;;;;2.13;0.57;;;12.00;1.00;;;;;;20297901;29;20058;-40
2023/10/16 10:42:37;;;;;;;1.55;0.40;;;12.00;1.00;;;;;;20313953;29;20040;-39
2023/10/16 10:52:38;;;;;;;2.53;0.40;;;12.30;1.00;;;;;;20314715;29;20051;-39
2023/10/16 11:13:03;;;;;;;1.98;0.28;;;13.00;1.00;;;;;;20314920;29;20044;-40
2023/10/16 11:23:25;;;;;;;3.38;0.55;;;12.70;1.00;;;;;;20310115;29;20051;-40
2023/10/16 11:33:44;;;;;;;2.83;0.63;;;12.70;1.00;;;;;;20310723;29;20051;-40
2023/10/16 11:43:51;;;;;;;1.35;0.38;;;13.00;1.00;;;;;;20310733;29;20075;-40
2023/10/16 11:54:02;;;;;;;2.90;0.50;;;12.50;1.00;;;;;;20303764;29;20051;-40
2023/10/16 12:04:04;;;;;;;2.08;0.50;;;12.30;1.00;;;;;;20314354;29;20044;-40
2023/10/16 12:14:07;;;;;;;3.83;0.50;;;12.10;1.00;;;;;;20316273;29;20082;-40
2023/10/16 12:24:10;;;;;;;3.72;0.52;;;12.30;1.00;;;;;;20310885;29;20048;-40
2023/10/16 12:34:12;;;;;;;3.15;0.50;;;12.30;1.00;;;;;;20310027;29;20035;-40
2023/10/16 12:44:12;;;;;;;2.38;0.52;;;12.60;1.00;;;;;;20311208;29;20096;-40
2023/10/16 12:54:13;;;;;;;2.37;0.40;;;12.70;1.00;;;;;;20326303;29;20052;-40
2023/10/16 13:04:15;;;;;;;3.65;0.40;;;12.90;1.00;;;;;;20325481;29;20048;-40
2023/10/16 13:14:17;;;;;;;3.28;0.50;;;12.80;1.00;;;;;;20326969;29;20102;-40
2023/10/16 13:24:20;;;;;;;5.45;0.70;;;12.90;1.00;;;;;;20298108;29;20044;-41
2023/10/16 13:34:20;;;;;;;3.63;0.70;;;13.20;1.00;;;;;;20323971;29;20520;-41
2023/10/16 13:44:23;;;;;;;3.70;0.60;;;13.20;1.00;;;;;;20317959;29;20108;-41
2023/10/16 13:54:24;;;;;;;3.67;0.70;;;13.10;1.00;;;;;;20289279;29;20036;-41
2023/10/16 14:04:28;;;;;;;5.28;2.10;;;13.10;1.00;;;;;;20293194;29;20496;-41
2023/10/16 14:14:32;;;;;;;5.10;1.60;;;13.20;1.00;;;;;;20297748;29;20048;-41
2023/10/16 14:24:34;;;;;;;3.13;0.45;;;13.20;1.00;;;;;;20291830;29;20191;-41
2023/10/16 14:34:35;;;;;;;3.20;0.52;;;13.10;1.00;;;;;;20297651;29;20096;-41
2023/10/16 14:44:35;;;;;;;3.38;0.68;;;13.00;1.00;;;;;;20281583;29;20064;-41
2023/10/16 14:54:36;;;;;;;3.13;0.60;;;13.10;1.00;;;;;;20257674;29;20044;-41
2023/10/16 15:04:37;;;;;;;4.05;0.80;;;13.10;1.00;;;;;;20277047;29;20055;-41
2023/10/16 15:14:37;;;;;;;2.47;0.70;;;12.80;1.00;;;;;;20268339;29;20045;-42
2023/10/16 15:24:39;;;;;;;3.80;0.70;;;12.70;1.00;;;;;;20279303;29;20048;-41
2023/10/16 15:34:40;;;;;;;3.80;0.57;;;12.50;1.00;;;;;;20318631;29;20048;-41
2023/10/16 15:44:41;;;;;;;2.28;0.65;;;12.30;1.00;;;;;;20303585;29;20048;-41
2023/10/16 15:54:42;;;;;;;3.90;0.80;;;12.30;1.00;;;;;;20289471;29;20050;-41
2023/10/16 16:04:50;;;;;;;3.20;0.70;;;12.20;1.00;;;;;;20269008;29;20053;-41
2023/10/16 16:14:51;;;;;;;3.60;0.63;;;12.00;1.00;;;;;;20268797;29;20092;-41
2023/10/16 16:24:52;;;;;;;3.97;0.98;;;11.70;1.00;;;;;;20239651;29;20052;-41
2023/10/16 16:34:53;;;;;;;4.80;0.90;;;11.40;1.00;;;;;;20271152;29;20679;-41
2023/10/16 16:44:53;;;;;;;4.47;1.42;;;11.10;1.00;;;;;;20283706;29;20232;-41
2023/10/16 16:54:54;;;;;;;5.25;1.58;;;10.80;1.00;;;;;;20272605;29;20591;-41
2023/10/16 17:04:55;;;;;;;4.93;1.50;;;10.60;12.90;;;;;;20222395;29;20134;-41
2023/10/16 17:14:56;;;;;;;3.97;1.23;;;10.30;23.00;;;;;;20262119;29;20052;-41
2023/10/16 17:24:56;;;;;;;5.30;1.40;;;10.20;38.10;;;;;;20252029;29;20048;-41
2023/10/16 17:34:57;;;;;;;3.60;1.30;;;10.10;43.70;;;;;;20269436;29;20052;-41
2023/10/16 17:44:58;;;;;;;4.95;1.92;;;10.00;63.90;;;;;;20279644;29;20438;-41
2023/10/16 17:54:59;;;;;;;4.97;1.90;;;9.90;87.10;;;;;;20272833;29;20048;-41
2023/10/16 18:05:00;;;;;;;6.07;2.17;;;9.80;94.80;;;;;;20273835;29;20151;-42
2023/10/16 18:15:08;;;;;;;5.05;2.60;;;9.80;99.90;;;;;;20278465;29;20727;-41
2023/10/16 18:25:08;;;;;;;7.32;3.22;;;9.70;99.90;;;;;;20290964;29;20892;-41
2023/10/16 18:35:09;;;;;;;8.57;3.50;;;9.70;99.90;;;;;;20287071;29;20127;-41
2023/10/16 18:45:10;;;;;;;8.95;4.35;;;9.70;99.90;;;;;;20281086;29;20048;-41
2023/10/16 18:55:13;;;;;;;15.90;7.40;;;9.60;99.90;;;;;;20269233;29;20100;-41
2023/10/16 19:05:15;;;;;;;34.83;15.57;;;9.60;99.90;;;;;;20280371;29;20060;-41
2023/10/16 19:15:16;;;;;;;15.40;7.20;;;9.60;99.90;;;;;;20265703;29;20036;-41
2023/10/16 19:25:17;;;;;;;13.07;6.32;;;9.60;99.90;;;;;;20272235;29;20098;-41
2023/10/16 19:35:18;;;;;;;10.30;4.70;;;9.50;99.90;;;;;;20286401;29;20058;-41
2023/10/16 19:45:20;;;;;;;6.85;3.70;;;9.40;99.90;;;;;;20278349;29;20044;-41
2023/10/16 19:55:22;;;;;;;9.20;3.95;;;9.20;99.90;;;;;;20276199;29;20127;-41
2023/10/16 20:05:25;;;;;;;7.65;3.47;;;9.10;99.90;;;;;;20269956;29;20529;-41
2023/10/16 20:15:28;;;;;;;6.60;2.95;;;9.00;99.90;;;;;;20278004;29;20063;-41
2023/10/16 20:25:33;;;;;;;8.02;2.90;;;8.90;99.90;;;;;;20259902;29;20036;-41
2023/10/16 20:35:34;;;;;;;8.80;3.10;;;9.00;99.90;;;;;;20274607;29;20079;-41
2023/10/16 20:45:35;;;;;;;7.72;3.00;;;9.00;99.90;;;;;;20283834;29;20074;-41
2023/10/16 20:55:40;;;;;;;5.82;3.00;;;9.00;99.90;;;;;;20286582;29;20048;-41
2023/10/16 21:05:44;;;;;;;8.45;3.08;;;9.00;99.90;;;;;;20291654;29;20044;-41
2023/10/16 21:15:44;;;;;;;8.15;4.25;;;8.90;99.90;;;;;;20299434;29;20051;-41
2023/10/16 21:25:45;;;;;;;7.63;3.60;;;8.90;99.90;;;;;;20282065;29;20131;-41
2023/10/16 21:35:45;;;;;;;8.48;3.67;;;8.70;99.90;;;;;;20283379;29;20571;-41
2023/10/16 21:45:46;;;;;;;7.47;3.75;;;8.60;99.90;;;;;;20291591;29;20441;-41
2023/10/16 21:55:46;;;;;;;7.13;4.32;;;8.50;99.90;;;;;;20292563;29;20063;-41
2023/10/16 22:05:47;;;;;;;7.95;4.50;;;8.40;99.90;;;;;;20289141;29;20076;-41
2023/10/16 22:15:47;;;;;;;10.68;4.97;;;8.30;99.90;;;;;;20278503;29;20318;-41
2023/10/16 22:25:51;;;;;;;7.90;4.47;;;8.30;99.90;;;;;;20275199;29;20055;-42
2023/10/16 22:35:52;;;;;;;9.85;5.05;;;8.30;99.90;;;;;;20274147;29;20076;-41
2023/10/16 22:45:52;;;;;;;10.75;4.95;;;8.20;99.90;;;;;;20282872;29;20428;-41
2023/10/16 22:55:55;;;;;;;6.35;4.25;;;8.10;99.90;;;;;;20282339;29;20040;-41
2023/10/16 23:05:59;;;;;;;7.07;3.70;;;8.10;99.90;;;;;;20290507;29;20058;-41
2023/10/16 23:16:05;;;;;;;9.77;3.72;;;8.10;99.90;;;;;;20283817;29;20131;-41
2023/10/16 23:26:11;;;;;;;7.85;3.67;;;8.10;99.90;;;;;;20288679;29;20460;-41
2023/10/16 23:36:12;;;;;;;8.55;3.95;;;8.10;99.90;;;;;;20286150;29;20134;-41
2023/10/16 23:46:14;;;;;;;10.27;4.25;;;8.00;99.90;;;;;;20287028;29;20098;-41
2023/10/16 23:56:20;;;;;;;6.40;3.92;;;8.10;99.90;;;;;;20284438;29;20059;-41
